sensor_id;sensor_type;location;lat;lon;timestamp;P1;durP1;ratioP1;P2;durP2;ratioP2
54545;SDS011;40444;45.184;9.850;2023-02-01T00:01:23;49.67;;;29.60;;
54545;SDS011;40444;45.184;9.850;2023-02-01T00:03:52;52.25;;;29.75;;
54545;SDS011;40444;45.184;9.850;2023-02-01T00:06:20;47.20;;;28.70;;
54545;SDS011;40444;45.184;9.850;2023-02-01T00:08:49;44.03;;;27.42;;
54545;SDS011;40444;45.184;9.850;2023-02-01T00:11:22;47.63;;;26.85;;
54545;SDS011;40444;45.184;9.850;2023-02-01T00:13:51;47.63;;;28.05;;
54545;SDS011;40444;45.184;9.850;2023-02-01T00:16:21;42.97;;;25.92;;
54545;SDS011;40444;45.184;9.850;2023-02-01T00:18:51;42.35;;;26.42;;
54545;SDS011;40444;45.184;9.850;2023-02-01T00:21:25;44.05;;;27.73;;
54545;SDS011;40444;45.184;9.850;2023-02-01T00:23:54;46.58;;;27.48;;
54545;SDS011;40444;45.184;9.850;2023-02-01T00:26:25;46.88;;;26.75;;
54545;SDS011;40444;45.184;9.850;2023-02-01T00:29:00;47.75;;;27.92;;
54545;SDS011;40444;45.184;9.850;2023-02-01T00:31:30;46.03;;;27.63;;
54545;SDS011;40444;45.184;9.850;2023-02-01T00:33:59;43.58;;;26.75;;
54545;SDS011;40444;45.184;9.850;2023-02-01T00:36:27;47.92;;;27.02;;
54545;SDS011;40444;45.184;9.850;2023-02-01T00:38:56;43.63;;;26.13;;
54545;SDS011;40444;45.184;9.850;2023-02-01T00:41:25;47.88;;;27.80;;
54545;SDS011;40444;45.184;9.850;2023-02-01T00:43:54;42.20;;;25.67;;
54545;SDS011;40444;45.184;9.850;2023-02-01T00:46:22;44.00;;;26.63;;
54545;SDS011;40444;45.184;9.850;2023-02-01T00:48:51;42.08;;;26.48;;
54545;SDS011;40444;45.184;9.850;2023-02-01T00:51:24;44.17;;;26.70;;
54545;SDS011;40444;45.184;9.850;2023-02-01T00:53:55;48.15;;;28.45;;
54545;SDS011;40444;45.184;9.850;2023-02-01T00:56:24;45.75;;;27.08;;
54545;SDS011;40444;45.184;9.850;2023-02-01T00:58:55;49.50;;;28.35;;
54545;SDS011;40444;45.184;9.850;2023-02-01T01:01:25;48.60;;;28.95;;
54545;SDS011;40444;45.184;9.850;2023-02-01T01:03:56;42.25;;;26.40;;
54545;SDS011;40444;45.184;9.850;2023-02-01T01:06:27;42.65;;;25.17;;
54545;SDS011;40444;45.184;9.850;2023-02-01T01:08:58;40.95;;;24.98;;
54545;SDS011;40444;45.184;9.850;2023-02-01T01:11:29;44.47;;;26.77;;
54545;SDS011;40444;45.184;9.850;2023-02-01T01:14:00;46.65;;;27.38;;
54545;SDS011;40444;45.184;9.850;2023-02-01T01:16:29;45.15;;;27.83;;
54545;SDS011;40444;45.184;9.850;2023-02-01T01:18:58;36.90;;;25.52;;
54545;SDS011;40444;45.184;9.850;2023-02-01T01:21:28;42.78;;;27.73;;
54545;SDS011;40444;45.184;9.850;2023-02-01T01:23:57;43.63;;;26.50;;
54545;SDS011;40444;45.184;9.850;2023-02-01T01:26:26;42.78;;;25.92;;
54545;SDS011;40444;45.184;9.850;2023-02-01T01:28:57;44.38;;;27.90;;
54545;SDS011;40444;45.184;9.850;2023-02-01T01:31:26;44.03;;;26.02;;
54545;SDS011;40444;45.184;9.850;2023-02-01T01:33:55;43.75;;;25.52;;
54545;SDS011;40444;45.184;9.850;2023-02-01T01:36:26;45.30;;;25.60;;
54545;SDS011;40444;45.184;9.850;2023-02-01T01:38:56;46.95;;;26.67;;
54545;SDS011;40444;45.184;9.850;2023-02-01T01:41:27;43.17;;;27.15;;
54545;SDS011;40444;45.184;9.850;2023-02-01T01:44:05;45.47;;;26.77;;
54545;SDS011;40444;45.184;9.850;2023-02-01T01:46:54;43.22;;;26.40;;
54545;SDS011;40444;45.184;9.850;2023-02-01T01:49:23;42.00;;;26.15;;
54545;SDS011;40444;45.184;9.850;2023-02-01T01:51:55;45.85;;;26.25;;
54545;SDS011;40444;45.184;9.850;2023-02-01T01:54:29;45.25;;;26.58;;
54545;SDS011;40444;45.184;9.850;2023-02-01T01:57:06;44.72;;;26.30;;
54545;SDS011;40444;45.184;9.850;2023-02-01T01:59:38;41.22;;;25.83;;
54545;SDS011;40444;45.184;9.850;2023-02-01T02:02:10;41.92;;;25.35;;
54545;SDS011;40444;45.184;9.850;2023-02-01T02:04:39;45.00;;;25.60;;
54545;SDS011;40444;45.184;9.850;2023-02-01T02:07:11;43.00;;;25.20;;
54545;SDS011;40444;45.184;9.850;2023-02-01T02:09:44;41.65;;;26.05;;
54545;SDS011;40444;45.184;9.850;2023-02-01T02:12:27;43.33;;;27.27;;
54545;SDS011;40444;45.184;9.850;2023-02-01T02:14:56;46.83;;;27.88;;
54545;SDS011;40444;45.184;9.850;2023-02-01T02:20:20;47.08;;;25.55;;
54545;SDS011;40444;45.184;9.850;2023-02-01T02:31:51;39.30;;;25.48;;
54545;SDS011;40444;45.184;9.850;2023-02-01T02:34:34;37.95;;;24.10;;
54545;SDS011;40444;45.184;9.850;2023-02-01T02:37:13;36.20;;;23.85;;
54545;SDS011;40444;45.184;9.850;2023-02-01T02:42:33;42.17;;;26.13;;
54545;SDS011;40444;45.184;9.850;2023-02-01T02:45:40;38.10;;;24.00;;
54545;SDS011;40444;45.184;9.850;2023-02-01T02:51:20;34.78;;;23.35;;
54545;SDS011;40444;45.184;9.850;2023-02-01T02:54:18;33.72;;;23.08;;
54545;SDS011;40444;45.184;9.850;2023-02-01T02:57:11;34.45;;;22.40;;
54545;SDS011;40444;45.184;9.850;2023-02-01T03:00:22;37.38;;;24.65;;
54545;SDS011;40444;45.184;9.850;2023-02-01T03:03:13;36.33;;;23.75;;
54545;SDS011;40444;45.184;9.850;2023-02-01T03:06:00;42.10;;;24.95;;
54545;SDS011;40444;45.184;9.850;2023-02-01T03:08:30;38.75;;;24.75;;
54545;SDS011;40444;45.184;9.850;2023-02-01T03:16:26;40.20;;;24.27;;
54545;SDS011;40444;45.184;9.850;2023-02-01T03:19:01;41.60;;;25.15;;
54545;SDS011;40444;45.184;9.850;2023-02-01T03:21:44;41.30;;;25.15;;
54545;SDS011;40444;45.184;9.850;2023-02-01T03:24:19;41.80;;;24.52;;
54545;SDS011;40444;45.184;9.850;2023-02-01T03:27:06;36.78;;;24.52;;
54545;SDS011;40444;45.184;9.850;2023-02-01T03:29:48;40.25;;;24.30;;
54545;SDS011;40444;45.184;9.850;2023-02-01T03:32:23;36.03;;;23.13;;
54545;SDS011;40444;45.184;9.850;2023-02-01T03:34:51;40.40;;;24.98;;
54545;SDS011;40444;45.184;9.850;2023-02-01T03:37:22;42.65;;;25.75;;
54545;SDS011;40444;45.184;9.850;2023-02-01T03:40:00;36.55;;;24.20;;
54545;SDS011;40444;45.184;9.850;2023-02-01T03:42:36;39.50;;;24.48;;
54545;SDS011;40444;45.184;9.850;2023-02-01T03:45:09;42.15;;;25.52;;
54545;SDS011;40444;45.184;9.850;2023-02-01T03:47:49;39.80;;;24.60;;
54545;SDS011;40444;45.184;9.850;2023-02-01T03:50:21;43.38;;;24.98;;
54545;SDS011;40444;45.184;9.850;2023-02-01T03:52:58;41.60;;;25.38;;
54545;SDS011;40444;45.184;9.850;2023-02-01T03:55:31;43.25;;;25.35;;
54545;SDS011;40444;45.184;9.850;2023-02-01T03:58:11;43.67;;;26.65;;
54545;SDS011;40444;45.184;9.850;2023-02-01T04:00:46;46.13;;;25.80;;
54545;SDS011;40444;45.184;9.850;2023-02-01T04:03:19;40.70;;;24.83;;
54545;SDS011;40444;45.184;9.850;2023-02-01T04:05:49;38.33;;;24.63;;
54545;SDS011;40444;45.184;9.850;2023-02-01T04:08:20;42.00;;;24.63;;
54545;SDS011;40444;45.184;9.850;2023-02-01T04:10:49;42.63;;;26.80;;
54545;SDS011;40444;45.184;9.850;2023-02-01T04:13:17;45.42;;;26.75;;
54545;SDS011;40444;45.184;9.850;2023-02-01T04:15:46;49.58;;;27.63;;
54545;SDS011;40444;45.184;9.850;2023-02-01T04:18:17;45.08;;;27.10;;
54545;SDS011;40444;45.184;9.850;2023-02-01T04:20:45;45.15;;;26.15;;
54545;SDS011;40444;45.184;9.850;2023-02-01T04:23:14;43.97;;;26.35;;
54545;SDS011;40444;45.184;9.850;2023-02-01T04:25:43;42.15;;;25.10;;
54545;SDS011;40444;45.184;9.850;2023-02-01T04:28:11;38.97;;;25.23;;
54545;SDS011;40444;45.184;9.850;2023-02-01T04:30:40;40.97;;;25.25;;
54545;SDS011;40444;45.184;9.850;2023-02-01T04:33:08;43.83;;;25.05;;
54545;SDS011;40444;45.184;9.850;2023-02-01T04:35:37;40.45;;;25.23;;
54545;SDS011;40444;45.184;9.850;2023-02-01T04:38:05;40.92;;;25.25;;
54545;SDS011;40444;45.184;9.850;2023-02-01T04:40:34;42.13;;;25.88;;
54545;SDS011;40444;45.184;9.850;2023-02-01T04:43:05;41.92;;;24.58;;
54545;SDS011;40444;45.184;9.850;2023-02-01T04:45:34;40.45;;;24.83;;
54545;SDS011;40444;45.184;9.850;2023-02-01T04:48:02;37.75;;;24.08;;
54545;SDS011;40444;45.184;9.850;2023-02-01T04:50:31;39.42;;;24.88;;
54545;SDS011;40444;45.184;9.850;2023-02-01T04:52:59;36.10;;;23.33;;
54545;SDS011;40444;45.184;9.850;2023-02-01T04:55:28;38.40;;;24.23;;
54545;SDS011;40444;45.184;9.850;2023-02-01T04:57:56;33.17;;;22.55;;
54545;SDS011;40444;45.184;9.850;2023-02-01T05:00:24;42.65;;;24.75;;
54545;SDS011;40444;45.184;9.850;2023-02-01T16:59:21;29.40;;;17.83;;
54545;SDS011;40444;45.184;9.850;2023-02-01T17:01:51;28.77;;;18.45;;
54545;SDS011;40444;45.184;9.850;2023-02-01T17:04:19;29.83;;;18.13;;
54545;SDS011;40444;45.184;9.850;2023-02-01T17:06:51;27.42;;;18.63;;
54545;SDS011;40444;45.184;9.850;2023-02-01T17:09:19;26.92;;;18.83;;
54545;SDS011;40444;45.184;9.850;2023-02-01T17:11:48;26.67;;;18.80;;
54545;SDS011;40444;45.184;9.850;2023-02-01T17:14:18;27.92;;;19.02;;
54545;SDS011;40444;45.184;9.850;2023-02-01T17:16:49;26.02;;;19.48;;
54545;SDS011;40444;45.184;9.850;2023-02-01T17:19:19;27.25;;;19.25;;
54545;SDS011;40444;45.184;9.850;2023-02-01T17:21:53;25.10;;;18.58;;
54545;SDS011;40444;45.184;9.850;2023-02-01T17:24:25;24.80;;;17.80;;
54545;SDS011;40444;45.184;9.850;2023-02-01T17:27:14;25.35;;;18.13;;
54545;SDS011;40444;45.184;9.850;2023-02-01T17:29:44;29.55;;;19.83;;
54545;SDS011;40444;45.184;9.850;2023-02-01T17:32:15;30.50;;;19.20;;
54545;SDS011;40444;45.184;9.850;2023-02-01T17:34:46;27.30;;;19.17;;
54545;SDS011;40444;45.184;9.850;2023-02-01T17:37:24;29.30;;;20.30;;
54545;SDS011;40444;45.184;9.850;2023-02-01T17:39:54;27.60;;;20.45;;
54545;SDS011;40444;45.184;9.850;2023-02-01T17:42:27;27.13;;;19.25;;
54545;SDS011;40444;45.184;9.850;2023-02-01T17:44:57;24.27;;;18.10;;
54545;SDS011;40444;45.184;9.850;2023-02-01T17:47:30;26.15;;;18.38;;
54545;SDS011;40444;45.184;9.850;2023-02-01T17:49:58;25.35;;;17.75;;
54545;SDS011;40444;45.184;9.850;2023-02-01T17:52:26;28.25;;;18.58;;
54545;SDS011;40444;45.184;9.850;2023-02-01T17:54:56;27.42;;;19.20;;
54545;SDS011;40444;45.184;9.850;2023-02-01T17:57:25;27.95;;;18.88;;
54545;SDS011;40444;45.184;9.850;2023-02-01T17:59:53;31.00;;;20.17;;
54545;SDS011;40444;45.184;9.850;2023-02-01T18:02:22;31.27;;;20.67;;
54545;SDS011;40444;45.184;9.850;2023-02-01T18:04:52;29.58;;;20.75;;
54545;SDS011;40444;45.184;9.850;2023-02-01T18:07:20;31.33;;;20.00;;
54545;SDS011;40444;45.184;9.850;2023-02-01T18:09:49;30.35;;;19.85;;
54545;SDS011;40444;45.184;9.850;2023-02-01T18:12:21;28.90;;;21.20;;
54545;SDS011;40444;45.184;9.850;2023-02-01T18:14:52;27.58;;;19.10;;
54545;SDS011;40444;45.184;9.850;2023-02-01T18:17:20;30.92;;;20.15;;
54545;SDS011;40444;45.184;9.850;2023-02-01T18:19:49;26.80;;;19.08;;
54545;SDS011;40444;45.184;9.850;2023-02-01T18:22:18;26.80;;;18.73;;
54545;SDS011;40444;45.184;9.850;2023-02-01T18:24:50;26.95;;;18.88;;
54545;SDS011;40444;45.184;9.850;2023-02-01T18:27:18;28.55;;;18.83;;
54545;SDS011;40444;45.184;9.850;2023-02-01T18:29:47;27.23;;;16.23;;
54545;SDS011;40444;45.184;9.850;2023-02-01T18:32:16;23.80;;;16.70;;
54545;SDS011;40444;45.184;9.850;2023-02-01T18:34:45;26.92;;;16.80;;
54545;SDS011;40444;45.184;9.850;2023-02-01T18:37:15;26.60;;;16.13;;
54545;SDS011;40444;45.184;9.850;2023-02-01T18:39:44;22.52;;;15.32;;
54545;SDS011;40444;45.184;9.850;2023-02-01T18:42:12;21.40;;;14.27;;
54545;SDS011;40444;45.184;9.850;2023-02-01T18:44:41;24.70;;;14.25;;
54545;SDS011;40444;45.184;9.850;2023-02-01T18:47:09;22.10;;;13.57;;
54545;SDS011;40444;45.184;9.850;2023-02-01T18:49:37;19.25;;;12.65;;
54545;SDS011;40444;45.184;9.850;2023-02-01T18:52:06;16.10;;;10.43;;
54545;SDS011;40444;45.184;9.850;2023-02-01T18:54:34;14.43;;;10.68;;
54545;SDS011;40444;45.184;9.850;2023-02-01T18:57:02;16.73;;;10.85;;
54545;SDS011;40444;45.184;9.850;2023-02-01T18:59:31;14.38;;;9.95;;
54545;SDS011;40444;45.184;9.850;2023-02-01T19:01:59;15.75;;;10.15;;
54545;SDS011;40444;45.184;9.850;2023-02-01T19:04:31;13.98;;;8.45;;
54545;SDS011;40444;45.184;9.850;2023-02-01T19:06:59;14.82;;;9.35;;
54545;SDS011;40444;45.184;9.850;2023-02-01T19:09:28;15.95;;;8.82;;
54545;SDS011;40444;45.184;9.850;2023-02-01T19:11:58;11.48;;;7.22;;
54545;SDS011;40444;45.184;9.850;2023-02-01T19:14:27;13.25;;;7.80;;
54545;SDS011;40444;45.184;9.850;2023-02-01T19:16:55;13.93;;;6.93;;
54545;SDS011;40444;45.184;9.850;2023-02-01T19:19:25;12.15;;;6.97;;
54545;SDS011;40444;45.184;9.850;2023-02-01T19:21:53;15.73;;;6.93;;
54545;SDS011;40444;45.184;9.850;2023-02-01T19:24:21;10.00;;;6.93;;
54545;SDS011;40444;45.184;9.850;2023-02-01T19:26:54;9.95;;;6.03;;
54545;SDS011;40444;45.184;9.850;2023-02-01T19:29:24;10.35;;;6.55;;
54545;SDS011;40444;45.184;9.850;2023-02-01T19:31:53;11.55;;;5.55;;
54545;SDS011;40444;45.184;9.850;2023-02-01T19:34:22;10.82;;;5.50;;
54545;SDS011;40444;45.184;9.850;2023-02-01T19:36:50;11.50;;;6.50;;
54545;SDS011;40444;45.184;9.850;2023-02-01T19:39:19;9.85;;;5.97;;
54545;SDS011;40444;45.184;9.850;2023-02-01T19:41:48;12.23;;;5.93;;
54545;SDS011;40444;45.184;9.850;2023-02-01T19:44:17;8.82;;;6.75;;
54545;SDS011;40444;45.184;9.850;2023-02-01T19:46:45;12.13;;;6.68;;
54545;SDS011;40444;45.184;9.850;2023-02-01T19:49:14;10.13;;;5.65;;
54545;SDS011;40444;45.184;9.850;2023-02-01T19:51:42;15.25;;;6.32;;
54545;SDS011;40444;45.184;9.850;2023-02-01T19:54:11;9.68;;;5.15;;
54545;SDS011;40444;45.184;9.850;2023-02-01T19:56:40;8.75;;;4.95;;
54545;SDS011;40444;45.184;9.850;2023-02-01T19:59:09;8.48;;;5.18;;
54545;SDS011;40444;45.184;9.850;2023-02-01T20:01:39;9.80;;;4.50;;
54545;SDS011;40444;45.184;9.850;2023-02-01T20:04:07;8.02;;;4.40;;
54545;SDS011;40444;45.184;9.850;2023-02-01T20:06:37;10.10;;;4.63;;
54545;SDS011;40444;45.184;9.850;2023-02-01T20:09:06;7.75;;;4.60;;
54545;SDS011;40444;45.184;9.850;2023-02-01T20:11:34;8.82;;;4.70;;
54545;SDS011;40444;45.184;9.850;2023-02-01T20:14:03;10.10;;;4.30;;
54545;SDS011;40444;45.184;9.850;2023-02-01T20:16:31;7.68;;;4.53;;
54545;SDS011;40444;45.184;9.850;2023-02-01T20:18:59;5.82;;;3.78;;
54545;SDS011;40444;45.184;9.850;2023-02-01T20:21:28;7.57;;;4.40;;
54545;SDS011;40444;45.184;9.850;2023-02-01T20:23:56;7.97;;;3.92;;
54545;SDS011;40444;45.184;9.850;2023-02-01T20:26:24;11.00;;;5.00;;
54545;SDS011;40444;45.184;9.850;2023-02-01T20:28:53;10.57;;;5.38;;
54545;SDS011;40444;45.184;9.850;2023-02-01T20:31:22;10.32;;;5.22;;
54545;SDS011;40444;45.184;9.850;2023-02-01T20:33:51;9.70;;;5.40;;
54545;SDS011;40444;45.184;9.850;2023-02-01T20:36:20;9.18;;;5.05;;
54545;SDS011;40444;45.184;9.850;2023-02-01T20:38:48;12.43;;;5.55;;
54545;SDS011;40444;45.184;9.850;2023-02-01T20:41:16;9.00;;;4.63;;
54545;SDS011;40444;45.184;9.850;2023-02-01T20:43:45;9.57;;;5.20;;
54545;SDS011;40444;45.184;9.850;2023-02-01T20:46:14;6.82;;;3.72;;
54545;SDS011;40444;45.184;9.850;2023-02-01T20:48:46;8.98;;;4.75;;
54545;SDS011;40444;45.184;9.850;2023-02-01T20:51:17;8.68;;;4.10;;
54545;SDS011;40444;45.184;9.850;2023-02-01T20:53:49;9.35;;;3.88;;
54545;SDS011;40444;45.184;9.850;2023-02-01T20:56:28;15.15;;;4.53;;
54545;SDS011;40444;45.184;9.850;2023-02-01T20:58:56;9.23;;;4.60;;
54545;SDS011;40444;45.184;9.850;2023-02-01T21:01:29;8.48;;;3.80;;
54545;SDS011;40444;45.184;9.850;2023-02-01T21:03:57;8.75;;;4.47;;
54545;SDS011;40444;45.184;9.850;2023-02-01T21:06:26;10.95;;;4.25;;
54545;SDS011;40444;45.184;9.850;2023-02-01T21:08:54;7.90;;;4.15;;
54545;SDS011;40444;45.184;9.850;2023-02-01T21:11:22;8.73;;;4.53;;
54545;SDS011;40444;45.184;9.850;2023-02-01T21:13:50;8.77;;;4.57;;
54545;SDS011;40444;45.184;9.850;2023-02-01T21:16:19;6.93;;;3.92;;
54545;SDS011;40444;45.184;9.850;2023-02-01T21:18:51;6.18;;;3.90;;
54545;SDS011;40444;45.184;9.850;2023-02-01T21:21:20;8.07;;;4.78;;
54545;SDS011;40444;45.184;9.850;2023-02-01T21:23:48;8.63;;;3.92;;
54545;SDS011;40444;45.184;9.850;2023-02-01T21:26:17;9.88;;;5.55;;
54545;SDS011;40444;45.184;9.850;2023-02-01T21:28:51;10.18;;;4.88;;
54545;SDS011;40444;45.184;9.850;2023-02-01T21:31:21;7.80;;;4.32;;
54545;SDS011;40444;45.184;9.850;2023-02-01T21:33:52;7.18;;;4.00;;
54545;SDS011;40444;45.184;9.850;2023-02-01T21:36:21;9.80;;;4.68;;
54545;SDS011;40444;45.184;9.850;2023-02-01T21:38:52;9.95;;;3.90;;
54545;SDS011;40444;45.184;9.850;2023-02-01T21:41:23;12.95;;;5.15;;
54545;SDS011;40444;45.184;9.850;2023-02-01T21:44:10;7.50;;;3.97;;
54545;SDS011;40444;45.184;9.850;2023-02-01T21:46:41;8.77;;;4.65;;
54545;SDS011;40444;45.184;9.850;2023-02-01T21:49:10;9.88;;;4.93;;
54545;SDS011;40444;45.184;9.850;2023-02-01T21:51:38;9.82;;;4.57;;
54545;SDS011;40444;45.184;9.850;2023-02-01T21:54:07;9.13;;;4.65;;
54545;SDS011;40444;45.184;9.850;2023-02-01T21:56:37;11.70;;;4.13;;
54545;SDS011;40444;45.184;9.850;2023-02-01T21:59:07;8.77;;;4.60;;
54545;SDS011;40444;45.184;9.850;2023-02-01T22:01:37;10.02;;;4.53;;
54545;SDS011;40444;45.184;9.850;2023-02-01T22:04:07;10.45;;;3.90;;
54545;SDS011;40444;45.184;9.850;2023-02-01T22:06:38;13.38;;;4.68;;
54545;SDS011;40444;45.184;9.850;2023-02-01T22:09:18;8.48;;;4.53;;
54545;SDS011;40444;45.184;9.850;2023-02-01T22:11:48;8.27;;;4.32;;
54545;SDS011;40444;45.184;9.850;2023-02-01T22:14:17;7.55;;;4.03;;
54545;SDS011;40444;45.184;9.850;2023-02-01T22:16:46;9.30;;;4.75;;
54545;SDS011;40444;45.184;9.850;2023-02-01T22:19:15;10.10;;;4.95;;
54545;SDS011;40444;45.184;9.850;2023-02-01T22:21:44;8.63;;;5.25;;
54545;SDS011;40444;45.184;9.850;2023-02-01T22:24:15;11.77;;;4.70;;
54545;SDS011;40444;45.184;9.850;2023-02-01T22:26:47;11.10;;;4.28;;
54545;SDS011;40444;45.184;9.850;2023-02-01T22:29:16;8.27;;;4.55;;
54545;SDS011;40444;45.184;9.850;2023-02-01T22:31:45;8.23;;;4.35;;
54545;SDS011;40444;45.184;9.850;2023-02-01T22:34:14;7.47;;;4.38;;
54545;SDS011;40444;45.184;9.850;2023-02-01T22:36:43;10.63;;;4.60;;
54545;SDS011;40444;45.184;9.850;2023-02-01T22:39:15;9.40;;;4.28;;
54545;SDS011;40444;45.184;9.850;2023-02-01T22:41:43;12.23;;;4.68;;
54545;SDS011;40444;45.184;9.850;2023-02-01T22:44:12;7.50;;;4.38;;
54545;SDS011;40444;45.184;9.850;2023-02-01T22:46:41;10.15;;;4.80;;
54545;SDS011;40444;45.184;9.850;2023-02-01T22:49:09;8.07;;;4.22;;
54545;SDS011;40444;45.184;9.850;2023-02-01T22:51:38;10.13;;;4.85;;
54545;SDS011;40444;45.184;9.850;2023-02-01T22:54:16;10.57;;;4.68;;
54545;SDS011;40444;45.184;9.850;2023-02-01T22:56:48;10.18;;;4.63;;
54545;SDS011;40444;45.184;9.850;2023-02-01T22:59:16;8.32;;;4.32;;
54545;SDS011;40444;45.184;9.850;2023-02-01T23:01:45;8.05;;;4.22;;
54545;SDS011;40444;45.184;9.850;2023-02-01T23:04:13;10.50;;;4.88;;
54545;SDS011;40444;45.184;9.850;2023-02-01T23:06:42;9.63;;;4.70;;
54545;SDS011;40444;45.184;9.850;2023-02-01T23:09:15;7.20;;;4.20;;
54545;SDS011;40444;45.184;9.850;2023-02-01T23:11:45;9.90;;;4.68;;
54545;SDS011;40444;45.184;9.850;2023-02-01T23:14:14;8.90;;;4.57;;
54545;SDS011;40444;45.184;9.850;2023-02-01T23:16:43;9.90;;;4.10;;
54545;SDS011;40444;45.184;9.850;2023-02-01T23:19:12;11.88;;;4.82;;
54545;SDS011;40444;45.184;9.850;2023-02-01T23:21:41;7.13;;;4.15;;
54545;SDS011;40444;45.184;9.850;2023-02-01T23:24:09;8.98;;;3.97;;
54545;SDS011;40444;45.184;9.850;2023-02-01T23:26:38;8.90;;;4.15;;
54545;SDS011;40444;45.184;9.850;2023-02-01T23:29:08;10.52;;;4.47;;
54545;SDS011;40444;45.184;9.850;2023-02-01T23:31:43;6.55;;;4.22;;
54545;SDS011;40444;45.184;9.850;2023-02-01T23:34:12;8.07;;;4.68;;
54545;SDS011;40444;45.184;9.850;2023-02-01T23:36:40;7.90;;;4.30;;
54545;SDS011;40444;45.184;9.850;2023-02-01T23:39:08;10.02;;;5.13;;
54545;SDS011;40444;45.184;9.850;2023-02-01T23:41:37;8.43;;;5.18;;
54545;SDS011;40444;45.184;9.850;2023-02-01T23:44:05;8.43;;;4.47;;
54545;SDS011;40444;45.184;9.850;2023-02-01T23:46:35;9.70;;;4.85;;
54545;SDS011;40444;45.184;9.850;2023-02-01T23:49:06;8.23;;;4.80;;
54545;SDS011;40444;45.184;9.850;2023-02-01T23:51:35;8.32;;;4.40;;
54545;SDS011;40444;45.184;9.850;2023-02-01T23:54:04;10.23;;;4.20;;
54545;SDS011;40444;45.184;9.850;2023-02-01T23:56:35;8.98;;;4.20;;
54545;SDS011;40444;45.184;9.850;2023-02-01T23:59:10;10.15;;;4.50;;
